Terminal Aerodrome Forecast
Issued by NWS

Home | Current Version | Previous Version | Text Only | Print | Product List | Glossary On
Versions: 1 2 3 4 5 6 7 8 9 10 11 12 13
871
FTUS46 KPDT 250214 AAA
TAFYKM
TAF AMD
KYKM 250214Z 2502/2524 26005KT P6SM FEW070
     FM251800 VRB05KT P6SM FEW070 SCT200=

USA.gov is the U.S. government's official web portal to all federal, state and local government web resources and services.